createdAt,value
2023-04-20T00:00:44.205Z,13.95
2023-04-20T00:03:12.756Z,14.45
2023-04-20T00:05:39.428Z,13.75
2023-04-20T00:08:06.164Z,14.10
2023-04-20T00:10:32.805Z,15.02
2023-04-20T00:12:59.305Z,14.45
2023-04-20T00:15:25.946Z,14.38
2023-04-20T00:17:53.623Z,13.82
2023-04-20T00:20:20.364Z,13.98
2023-04-20T00:22:46.896Z,15.05
2023-04-20T00:25:13.397Z,14.60
2023-04-20T00:27:40.060Z,14.18
2023-04-20T00:30:07.248Z,13.63
2023-04-20T00:32:33.763Z,13.80
2023-04-20T00:35:00.383Z,12.85
2023-04-20T00:37:26.956Z,12.82
2023-04-20T00:39:55.483Z,12.50
2023-04-20T00:42:22.004Z,12.20
2023-04-20T00:44:48.506Z,12.50
2023-04-20T00:47:15.099Z,12.43
2023-04-20T00:49:41.771Z,12.90
2023-04-20T00:52:08.962Z,12.23
2023-04-20T00:54:36.296Z,11.95
2023-04-20T00:57:03.906Z,11.93
2023-04-20T00:59:30.415Z,11.70
2023-04-20T01:01:58.006Z,11.32
2023-04-20T01:04:25.011Z,12.50
2023-04-20T01:06:51.590Z,12.10
2023-04-20T01:09:18.258Z,12.88
2023-04-20T01:11:44.999Z,11.57
2023-04-20T01:16:42.645Z,12.60
2023-04-20T01:19:12.289Z,11.85
2023-04-20T01:21:38.901Z,12.93
2023-04-20T01:24:06.394Z,12.63
2023-04-20T01:26:32.871Z,11.50
2023-04-20T01:28:59.379Z,12.80
2023-04-20T01:31:25.983Z,12.63
2023-04-20T01:33:52.569Z,12.88
2023-04-20T01:36:20.751Z,13.05
2023-04-20T01:38:47.592Z,12.10
2023-04-20T01:41:14.643Z,12.43
2023-04-20T01:43:41.322Z,11.82
2023-04-20T01:46:07.882Z,12.50
2023-04-20T01:48:34.992Z,12.55
2023-04-20T01:51:01.538Z,12.27
2023-04-20T01:53:28.082Z,12.50
2023-04-20T01:55:54.851Z,12.10
2023-04-20T01:58:22.767Z,11.98
2023-04-20T02:00:49.426Z,12.02
2023-04-20T02:03:16.473Z,11.63
2023-04-20T02:05:43.117Z,12.70
2023-04-20T02:08:09.705Z,11.65
2023-04-20T02:10:39.177Z,12.70
2023-04-20T02:13:05.682Z,12.48
2023-04-20T02:15:32.284Z,12.25
2023-04-20T02:17:58.902Z,12.35
2023-04-20T02:20:25.537Z,12.32
2023-04-20T02:22:52.060Z,12.40
2023-04-20T02:25:18.602Z,12.95
2023-04-20T02:27:45.124Z,14.07
2023-04-20T02:30:12.482Z,13.05
2023-04-20T02:32:41.291Z,12.68
2023-04-20T02:35:08.824Z,13.52
2023-04-20T02:37:35.337Z,14.00
2023-04-20T02:40:01.879Z,13.70
2023-04-20T02:42:29.193Z,14.05
2023-04-20T02:44:57.467Z,13.90
2023-04-20T02:47:24.505Z,14.77
2023-04-20T02:49:52.954Z,16.30
2023-04-20T02:52:19.574Z,14.80
2023-04-20T02:54:46.345Z,14.93
2023-04-20T02:57:13.378Z,15.40
2023-04-20T02:59:40.031Z,15.73
2023-04-20T03:02:16.055Z,15.70
2023-04-20T03:04:42.876Z,16.38
2023-04-20T03:07:17.801Z,17.20
2023-04-20T03:09:44.926Z,15.95
2023-04-20T03:12:31.816Z,18.00
2023-04-20T03:15:15.584Z,16.77
2023-04-20T03:17:52.468Z,15.85
2023-04-20T03:20:19.000Z,17.63
2023-04-20T03:22:45.711Z,16.52
2023-04-20T03:25:12.437Z,17.77
2023-04-20T03:27:52.993Z,18.52
2023-04-20T03:30:19.860Z,17.58
2023-04-20T03:32:51.407Z,16.63
2023-04-20T03:35:18.209Z,18.13
2023-04-20T03:37:44.815Z,16.92
2023-04-20T03:40:11.790Z,19.48
2023-04-20T03:42:38.334Z,17.88
2023-04-20T03:45:06.388Z,17.13
2023-04-20T03:47:33.274Z,17.48
2023-04-20T03:49:59.851Z,18.83
2023-04-20T03:52:26.409Z,17.80
2023-04-20T03:54:53.278Z,18.48
2023-04-20T03:57:19.836Z,19.55
2023-04-20T03:59:46.805Z,19.30
2023-04-20T04:02:17.601Z,19.75
2023-04-20T04:04:46.454Z,19.33
2023-04-20T04:07:13.053Z,19.58
2023-04-20T04:09:41.401Z,18.77
2023-04-20T04:12:08.664Z,18.75
2023-04-20T04:14:35.199Z,19.40
2023-04-20T04:17:02.226Z,19.20
2023-04-20T04:19:30.226Z,18.50
2023-04-20T04:21:56.784Z,18.42
2023-04-20T04:24:23.330Z,18.58
2023-04-20T04:26:59.426Z,18.48
2023-04-20T04:29:27.601Z,17.95
2023-04-20T04:34:37.638Z,18.35
2023-04-20T04:37:04.602Z,19.80
2023-04-20T04:39:45.569Z,19.25
2023-04-20T04:42:18.688Z,19.35
2023-04-20T04:44:46.149Z,18.48
2023-04-20T04:47:17.951Z,18.77
2023-04-20T04:49:45.551Z,19.55
2023-04-20T04:52:13.308Z,17.48
2023-04-20T04:54:39.779Z,19.65
2023-04-20T04:57:06.793Z,19.85
2023-04-20T04:59:33.363Z,18.52
2023-04-20T05:01:59.967Z,19.23
2023-04-20T05:04:26.675Z,18.45
2023-04-20T05:06:53.249Z,20.40
2023-04-20T05:09:20.146Z,19.83
2023-04-20T05:11:46.862Z,19.20
2023-04-20T05:14:13.439Z,19.38
2023-04-20T05:16:40.019Z,18.88
2023-04-20T05:19:06.569Z,19.67
2023-04-20T05:21:33.124Z,20.98
2023-04-20T05:23:59.705Z,21.05
2023-04-20T05:26:26.201Z,19.38
2023-04-20T05:28:52.692Z,19.65
2023-04-20T05:31:20.141Z,18.85
2023-04-20T05:33:46.713Z,19.20
2023-04-20T05:36:13.241Z,19.00
2023-04-20T05:38:39.801Z,20.52
2023-04-20T05:41:06.590Z,18.30
2023-04-20T05:43:33.088Z,22.63
2023-04-20T05:45:59.619Z,22.05
2023-04-20T05:48:29.877Z,19.73
2023-04-20T05:50:56.917Z,21.80
2023-04-20T05:53:23.429Z,20.33
2023-04-20T05:55:50.037Z,20.38
2023-04-20T05:58:17.064Z,21.10
2023-04-20T06:00:44.381Z,22.52
2023-04-20T06:03:11.157Z,21.38
2023-04-20T06:05:38.040Z,20.52
2023-04-20T06:08:04.814Z,22.25
2023-04-20T06:10:34.325Z,21.13
2023-04-20T06:13:01.004Z,21.48
2023-04-20T06:15:27.458Z,21.67
2023-04-20T06:17:54.044Z,21.50
2023-04-20T06:20:20.670Z,22.67
2023-04-20T06:22:47.310Z,22.23
2023-04-20T06:25:15.204Z,21.25
2023-04-20T06:27:42.256Z,22.05
2023-04-20T06:30:09.869Z,21.15
2023-04-20T06:32:36.623Z,23.10
2023-04-20T06:35:04.264Z,24.00
2023-04-20T06:37:30.784Z,22.75
2023-04-20T06:39:57.385Z,22.70
2023-04-20T06:42:23.896Z,24.30
2023-04-20T06:44:50.897Z,23.77
2023-04-20T06:47:17.435Z,21.90
2023-04-20T06:49:43.964Z,22.02
2023-04-20T06:52:10.478Z,21.50
2023-04-20T06:54:36.968Z,21.55
2023-04-20T06:57:03.457Z,21.38
2023-04-20T06:59:29.945Z,21.45
2023-04-20T07:01:56.498Z,20.48
2023-04-20T07:04:23.171Z,19.20
2023-04-20T07:06:53.828Z,20.65
2023-04-20T07:09:20.930Z,21.30
2023-04-20T07:11:47.431Z,19.25
2023-04-20T07:14:14.035Z,18.25
2023-04-20T07:16:40.587Z,18.98
2023-04-20T07:19:07.217Z,17.88
2023-04-20T07:21:33.980Z,19.67
2023-04-20T07:24:00.519Z,20.08
2023-04-20T07:26:27.030Z,21.02
2023-04-20T07:28:53.535Z,19.55
2023-04-20T07:31:20.201Z,20.00
2023-04-20T07:33:46.750Z,18.90
2023-04-20T07:36:13.246Z,18.63
2023-04-20T07:38:39.848Z,20.13
2023-04-20T07:41:10.011Z,19.85
2023-04-20T07:43:36.793Z,19.35
2023-04-20T07:46:03.446Z,17.67
2023-04-20T07:48:30.049Z,20.27
2023-04-20T07:50:56.630Z,18.70
2023-04-20T07:53:23.139Z,18.30
2023-04-20T07:55:51.027Z,18.70
2023-04-20T07:58:17.710Z,17.58
2023-04-20T08:00:46.401Z,19.58
2023-04-20T08:03:13.590Z,18.98
2023-04-20T08:05:40.990Z,17.63
2023-04-20T08:08:07.706Z,17.42
2023-04-20T08:10:35.177Z,16.77
2023-04-20T08:13:01.740Z,17.25
2023-04-20T08:15:28.323Z,16.88
2023-04-20T08:17:54.953Z,18.52
2023-04-20T08:20:21.464Z,18.23
2023-04-20T08:22:49.311Z,17.17
2023-04-20T08:25:15.931Z,16.92
2023-04-20T08:27:42.437Z,17.27
2023-04-20T08:30:09.454Z,16.13
2023-04-20T08:32:36.319Z,15.18
2023-04-20T08:35:04.212Z,15.32
2023-04-20T08:37:32.678Z,14.80
2023-04-20T08:39:59.671Z,14.80
2023-04-20T08:42:26.289Z,13.60
2023-04-20T08:44:53.027Z,14.23
2023-04-20T08:47:20.638Z,13.70
2023-04-20T08:49:48.407Z,12.75
2023-04-20T08:52:15.022Z,11.73
2023-04-20T08:54:55.267Z,12.40
2023-04-20T08:57:22.966Z,13.25
2023-04-20T08:59:49.484Z,13.52
2023-04-20T09:02:16.246Z,13.95
2023-04-20T09:04:42.914Z,14.20
2023-04-20T09:07:21.969Z,14.73
2023-04-20T09:09:56.163Z,15.82
2023-04-20T09:12:23.165Z,15.10
2023-04-20T09:14:49.690Z,15.25
2023-04-20T09:17:17.907Z,15.88
2023-04-20T09:19:45.223Z,15.13
2023-04-20T09:22:12.055Z,16.17
2023-04-20T09:24:39.860Z,17.27
2023-04-20T09:27:16.742Z,17.15
2023-04-20T09:29:43.326Z,17.50
2023-04-20T09:32:22.131Z,18.63
2023-04-20T09:34:48.786Z,19.33
2023-04-20T09:37:16.566Z,20.58
2023-04-20T09:39:46.481Z,19.77
2023-04-20T09:42:14.190Z,20.48
2023-04-20T09:44:40.674Z,20.77
2023-04-20T09:47:08.564Z,20.92
2023-04-20T09:49:35.628Z,19.98
2023-04-20T09:52:03.614Z,17.70
2023-04-20T09:54:30.594Z,19.00
2023-04-20T09:57:01.690Z,19.05
2023-04-20T10:01:55.409Z,18.92
2023-04-20T10:04:22.139Z,19.67
2023-04-20T10:06:57.908Z,19.33
2023-04-20T10:09:26.288Z,18.73
2023-04-20T10:11:55.144Z,17.48
2023-04-20T10:14:26.142Z,15.75
2023-04-20T10:17:00.111Z,15.90
2023-04-20T10:19:56.210Z,14.48
2023-04-20T10:22:32.981Z,13.88
2023-04-20T10:25:00.865Z,13.52
2023-04-20T10:27:27.682Z,14.38
2023-04-20T10:29:54.386Z,12.68
2023-04-20T10:32:28.203Z,13.00
2023-04-20T10:35:02.815Z,12.68
2023-04-20T10:37:29.679Z,12.25
2023-04-20T10:39:56.300Z,13.38
2023-04-20T10:42:22.900Z,12.45
2023-04-20T10:44:49.476Z,11.93
2023-04-20T10:47:17.013Z,12.90
2023-04-20T10:49:43.477Z,13.40
2023-04-20T10:52:10.026Z,11.60
2023-04-20T10:54:37.982Z,12.60
2023-04-20T10:57:05.324Z,11.75
2023-04-20T10:59:31.819Z,11.88
2023-04-20T11:02:01.355Z,12.48
2023-04-20T11:04:36.905Z,11.88
2023-04-20T11:07:13.027Z,11.77
2023-04-20T11:09:39.838Z,12.65
2023-04-20T11:12:12.202Z,11.63
2023-04-20T11:14:53.822Z,13.02
2023-04-20T11:17:20.745Z,12.05
2023-04-20T11:19:47.659Z,12.68
2023-04-20T11:22:21.352Z,12.32
2023-04-20T11:24:47.869Z,12.90
2023-04-20T11:27:22.132Z,12.07
2023-04-20T11:29:57.322Z,11.85
2023-04-20T11:32:24.494Z,13.00
2023-04-20T11:35:07.849Z,13.05
2023-04-20T11:37:46.776Z,12.60
2023-04-20T11:40:13.678Z,13.23
2023-04-20T11:42:40.319Z,12.82
2023-04-20T11:45:07.398Z,13.57
2023-04-20T11:47:33.938Z,13.68
2023-04-20T11:50:00.445Z,13.70
2023-04-20T11:52:27.373Z,13.55
2023-04-20T11:54:53.853Z,14.80
2023-04-20T11:57:23.661Z,13.48
2023-04-20T11:59:50.292Z,13.60
2023-04-20T12:02:16.897Z,13.77
2023-04-20T12:04:43.624Z,13.60
2023-04-20T12:07:10.767Z,12.75
2023-04-20T12:09:38.387Z,13.15
2023-04-20T12:12:05.379Z,13.68
2023-04-20T12:14:33.722Z,13.77
2023-04-20T12:17:01.436Z,14.13
2023-04-20T12:19:28.152Z,15.05
2023-04-20T12:21:55.718Z,13.80
2023-04-20T12:24:22.558Z,13.88
2023-04-20T12:26:49.157Z,14.48
2023-04-20T12:29:16.620Z,13.85
2023-04-20T12:31:43.396Z,13.95
2023-04-20T12:34:09.925Z,13.55
2023-04-20T12:36:36.722Z,13.07
2023-04-20T12:39:03.736Z,14.07
2023-04-20T12:41:30.393Z,13.82
2023-04-20T12:43:56.978Z,12.98
2023-04-20T12:46:23.520Z,13.35
2023-04-20T12:48:50.150Z,12.70
2023-04-20T12:51:16.755Z,11.68
2023-04-20T12:53:43.274Z,12.30
2023-04-20T12:56:09.837Z,11.95
2023-04-20T12:58:36.531Z,12.00
2023-04-20T13:01:03.557Z,11.38
2023-04-20T13:03:30.390Z,11.82
2023-04-20T13:05:57.043Z,12.13
2023-04-20T13:08:23.742Z,10.98
2023-04-20T13:10:50.253Z,11.23
2023-04-20T13:13:16.879Z,11.10
2023-04-20T13:15:43.457Z,11.68
2023-04-20T13:18:10.145Z,10.02
2023-04-20T13:20:36.857Z,11.15
2023-04-20T13:23:04.276Z,10.55
2023-04-20T13:25:35.173Z,10.73
2023-04-20T13:30:28.995Z,11.25
2023-04-20T13:32:55.729Z,10.88
2023-04-20T13:35:22.360Z,10.90
2023-04-20T13:37:49.001Z,10.98
2023-04-20T13:40:15.601Z,10.88
2023-04-20T13:42:42.502Z,10.68
2023-04-20T13:45:10.291Z,10.63
2023-04-20T13:47:38.171Z,10.70
2023-04-20T13:50:05.834Z,11.00
2023-04-20T13:52:32.422Z,10.65
2023-04-20T13:54:58.960Z,9.90
2023-04-20T13:57:25.619Z,10.60
2023-04-20T13:59:53.046Z,10.93
2023-04-20T14:02:19.654Z,10.73
2023-04-20T14:04:46.361Z,10.50
2023-04-20T14:07:12.930Z,10.82
2023-04-20T14:09:39.429Z,10.48
2023-04-20T14:12:05.991Z,10.15
2023-04-20T14:14:32.564Z,10.25
2023-04-20T14:16:59.062Z,9.73
2023-04-20T14:19:25.644Z,10.10
2023-04-20T14:21:52.309Z,9.55
2023-04-20T14:24:18.993Z,10.05
2023-04-20T14:26:45.806Z,9.93
2023-04-20T14:29:12.303Z,9.82
2023-04-20T14:31:38.898Z,8.68
2023-04-20T14:34:05.551Z,10.38
2023-04-20T14:36:32.514Z,9.70
2023-04-20T14:38:58.988Z,9.35
2023-04-20T14:41:25.604Z,9.65
2023-04-20T14:43:52.097Z,10.20
2023-04-20T14:46:19.048Z,9.30
2023-04-20T14:48:46.496Z,10.20
2023-04-20T14:51:13.574Z,10.80
2023-04-20T14:53:40.222Z,9.88
2023-04-20T14:56:06.795Z,9.90
2023-04-20T14:58:33.378Z,10.73
2023-04-20T15:00:59.876Z,9.40
2023-04-20T15:03:26.691Z,10.10
2023-04-20T15:05:53.693Z,9.00
2023-04-20T15:08:20.264Z,9.80
2023-04-20T15:10:46.778Z,10.32
2023-04-20T15:13:13.490Z,9.18
2023-04-20T15:15:48.161Z,9.23
2023-04-20T15:18:16.842Z,9.35
2023-04-20T15:20:43.783Z,8.38
2023-04-20T15:23:10.417Z,8.00
2023-04-20T15:25:36.905Z,7.55
2023-04-20T15:28:03.434Z,6.95
2023-04-20T15:30:30.516Z,6.97
2023-04-20T15:33:04.620Z,7.70
2023-04-20T15:35:32.371Z,7.32
2023-04-20T15:37:59.041Z,7.35
2023-04-20T15:40:27.262Z,7.90
2023-04-20T15:42:55.813Z,7.25
2023-04-20T15:45:23.061Z,7.30
2023-04-20T15:47:49.858Z,6.93
2023-04-20T15:50:16.699Z,7.28
2023-04-20T15:52:43.799Z,6.93
2023-04-20T15:55:10.986Z,6.78
2023-04-20T15:57:37.497Z,6.20
2023-04-20T16:00:04.469Z,6.60
2023-04-20T16:02:37.024Z,6.20
2023-04-20T16:05:04.301Z,7.20
2023-04-20T16:07:30.923Z,6.65
2023-04-20T16:09:57.428Z,6.47
2023-04-20T16:12:24.063Z,6.28
2023-04-20T16:14:53.195Z,6.15
2023-04-20T16:17:20.315Z,6.72
2023-04-20T16:19:46.838Z,5.80
2023-04-20T16:22:14.163Z,6.53
2023-04-20T16:24:40.740Z,5.93
2023-04-20T16:27:07.308Z,6.85
2023-04-20T16:29:33.832Z,6.47
2023-04-20T16:32:00.575Z,6.40
2023-04-20T16:34:27.175Z,6.63
2023-04-20T16:36:53.764Z,5.82
2023-04-20T16:39:20.304Z,6.57
2023-04-20T16:41:46.873Z,6.82
2023-04-20T16:44:14.441Z,6.28
2023-04-20T16:46:41.923Z,6.20
2023-04-20T16:49:09.154Z,6.28
2023-04-20T16:51:35.846Z,6.30
2023-04-20T16:54:02.374Z,5.90
2023-04-20T16:56:28.953Z,6.75
2023-04-20T16:58:55.632Z,6.00
2023-04-20T17:01:22.425Z,6.30
2023-04-20T17:03:49.249Z,6.28
2023-04-20T17:06:15.937Z,8.32
2023-04-20T17:08:42.429Z,6.28
2023-04-20T17:11:08.952Z,6.35
2023-04-20T17:13:35.471Z,6.40
2023-04-20T17:16:02.004Z,6.10
2023-04-20T17:18:28.522Z,6.80
2023-04-20T17:20:57.235Z,6.78
2023-04-20T17:23:23.819Z,6.03
2023-04-20T17:25:51.278Z,6.00
2023-04-20T17:28:17.873Z,6.65
2023-04-20T17:30:44.543Z,6.72
2023-04-20T17:33:14.443Z,6.13
2023-04-20T17:35:41.224Z,5.70
2023-04-20T17:38:07.851Z,6.57
2023-04-20T17:40:34.732Z,6.78
2023-04-20T17:43:01.900Z,6.97
2023-04-20T17:45:28.535Z,6.45
2023-04-20T17:47:55.077Z,6.07
2023-04-20T17:50:22.648Z,6.28
2023-04-20T17:52:49.133Z,7.35
2023-04-20T17:55:15.627Z,6.47
2023-04-20T17:57:42.169Z,6.55
2023-04-20T18:00:11.562Z,6.55
2023-04-20T18:02:52.506Z,5.88
2023-04-20T18:05:19.251Z,6.72
2023-04-20T18:07:45.733Z,6.38
2023-04-20T18:10:15.786Z,7.18
2023-04-20T18:12:42.844Z,6.17
2023-04-20T18:15:09.665Z,6.05
2023-04-20T18:17:36.225Z,6.85
2023-04-20T18:20:05.583Z,6.70
2023-04-20T18:22:32.753Z,6.65
2023-04-20T18:24:59.262Z,7.38
2023-04-20T18:27:26.300Z,6.85
2023-04-20T18:29:53.638Z,7.63
2023-04-20T18:32:20.916Z,7.20
2023-04-20T18:34:47.755Z,6.60
2023-04-20T18:37:15.040Z,7.50
2023-04-20T18:39:41.679Z,7.00
2023-04-20T18:42:08.201Z,6.85
2023-04-20T18:44:35.086Z,7.07
2023-04-20T18:47:01.857Z,6.97
2023-04-20T18:49:30.001Z,7.40
2023-04-20T18:51:56.574Z,7.22
2023-04-20T18:54:23.175Z,7.30
2023-04-20T18:56:50.397Z,7.03
2023-04-20T18:59:16.994Z,7.05
2023-04-20T19:01:43.612Z,7.15
2023-04-20T19:04:10.403Z,7.20
2023-04-20T19:06:36.975Z,6.75
2023-04-20T19:09:04.174Z,7.10
2023-04-20T19:11:32.050Z,7.53
2023-04-20T19:13:58.570Z,7.97
2023-04-20T19:16:25.119Z,7.38
2023-04-20T19:18:51.987Z,8.43
2023-04-20T19:21:20.268Z,7.90
2023-04-20T19:23:48.133Z,11.98
2023-04-20T19:26:15.650Z,10.00
2023-04-20T19:28:42.202Z,8.05
2023-04-20T19:31:10.921Z,8.35
2023-04-20T19:33:38.038Z,7.53
2023-04-20T19:36:06.283Z,7.22
2023-04-20T19:38:34.601Z,7.70
2023-04-20T19:41:01.411Z,7.03
2023-04-20T19:43:28.110Z,7.90
2023-04-20T19:45:58.128Z,7.13
2023-04-20T19:48:25.552Z,7.43
2023-04-20T19:50:52.126Z,8.18
2023-04-20T19:53:19.253Z,7.35
2023-04-20T19:55:45.853Z,7.07
2023-04-20T19:58:13.365Z,7.07
2023-04-20T20:00:40.159Z,7.45
2023-04-20T20:03:10.372Z,6.93
2023-04-20T20:05:36.993Z,7.45
2023-04-20T20:08:04.362Z,6.55
2023-04-20T20:10:30.879Z,7.00
2023-04-20T20:12:57.394Z,6.57
2023-04-20T20:15:23.952Z,7.38
2023-04-20T20:17:50.940Z,6.90
2023-04-20T20:20:17.482Z,6.95
2023-04-20T20:22:48.210Z,6.97
2023-04-20T20:25:16.152Z,6.32
2023-04-20T20:27:42.649Z,6.95
2023-04-20T20:30:09.813Z,6.88
2023-04-20T20:32:36.308Z,7.40
2023-04-20T20:35:04.642Z,6.65
2023-04-20T20:37:34.613Z,6.32
2023-04-20T20:40:07.033Z,7.20
2023-04-20T20:42:34.063Z,6.20
2023-04-20T20:45:01.073Z,6.63
2023-04-20T20:47:27.651Z,6.70
2023-04-20T20:49:54.178Z,6.35
2023-04-20T20:52:21.171Z,6.78
2023-04-20T20:54:48.266Z,6.55
2023-04-20T20:57:14.932Z,6.80
2023-04-20T20:59:41.467Z,6.93
2023-04-20T21:02:08.144Z,7.22
2023-04-20T21:04:34.750Z,6.35
2023-04-20T21:07:01.277Z,7.25
2023-04-20T21:09:27.793Z,6.57
2023-04-20T21:11:56.614Z,5.82
2023-04-20T21:14:23.235Z,7.22
2023-04-20T21:16:49.881Z,7.00
2023-04-20T21:19:16.611Z,6.80
2023-04-20T21:21:43.461Z,6.40
2023-04-20T21:24:09.920Z,6.43
2023-04-20T21:26:36.419Z,6.13
2023-04-20T21:29:03.623Z,6.95
2023-04-20T21:31:30.870Z,6.07
2023-04-20T21:33:57.908Z,7.13
2023-04-20T21:36:24.403Z,7.07
2023-04-20T21:38:50.952Z,6.38
2023-04-20T21:41:17.475Z,7.00
2023-04-20T21:43:44.007Z,6.93
2023-04-20T21:46:14.417Z,6.68
2023-04-20T21:48:41.302Z,6.65
2023-04-20T21:51:07.845Z,6.03
2023-04-20T21:53:34.421Z,6.85
2023-04-20T21:56:00.945Z,7.13
2023-04-20T21:58:27.432Z,5.85
2023-04-20T22:00:53.999Z,7.20
2023-04-20T22:03:20.706Z,7.07
2023-04-20T22:05:47.438Z,6.60
2023-04-20T22:08:15.241Z,6.60
2023-04-20T22:10:42.093Z,7.25
2023-04-20T22:13:08.575Z,6.68
2023-04-20T22:15:35.080Z,6.72
2023-04-20T22:18:03.973Z,6.40
2023-04-20T22:20:31.528Z,6.60
2023-04-20T22:23:00.973Z,7.88
2023-04-20T22:25:27.451Z,6.38
2023-04-20T22:27:53.917Z,7.75
2023-04-20T22:30:20.692Z,6.13
2023-04-20T22:32:47.457Z,6.35
2023-04-20T22:35:14.046Z,6.97
2023-04-20T22:37:40.910Z,6.50
2023-04-20T22:40:08.238Z,6.15
2023-04-20T22:42:36.108Z,5.97
2023-04-20T22:45:03.665Z,6.15
2023-04-20T22:47:30.296Z,6.75
2023-04-20T22:49:56.999Z,6.18
2023-04-20T22:52:23.528Z,6.28
2023-04-20T22:54:50.016Z,6.57
2023-04-20T22:57:18.134Z,7.03
2023-04-20T22:59:44.745Z,6.20
2023-04-20T23:02:11.320Z,5.88
2023-04-20T23:04:37.967Z,6.40
2023-04-20T23:07:08.027Z,6.18
2023-04-20T23:09:37.982Z,6.95
2023-04-20T23:12:04.700Z,5.65
2023-04-20T23:14:32.044Z,5.93
2023-04-20T23:17:00.002Z,7.53
2023-04-20T23:19:26.537Z,6.18
2023-04-20T23:21:53.031Z,5.82
2023-04-20T23:24:19.528Z,6.00
2023-04-20T23:26:46.057Z,5.68
2023-04-20T23:29:12.596Z,6.15
2023-04-20T23:31:39.204Z,5.82
2023-04-20T23:34:06.033Z,5.82
2023-04-20T23:36:32.888Z,5.82
2023-04-20T23:38:59.365Z,6.72
2023-04-20T23:41:25.977Z,6.10
2023-04-20T23:43:52.465Z,5.63
2023-04-20T23:46:19.163Z,6.03
2023-04-20T23:48:45.760Z,6.85
2023-04-20T23:51:12.277Z,6.63
2023-04-20T23:53:39.329Z,6.63
2023-04-20T23:56:06.495Z,6.78
2023-04-20T23:58:32.972Z,6.85
